Time;durP1;ratioP1;P1;durP2;ratioP2;P2;SDS_P1;SDS_P2;PMS_P1;PMS_P2;Temp;Humidity;BMP_temperature;BMP_pressure;BME280_temperature;BME280_humidity;BME280_pressure;Samples;Min_cycle;Max_cycle;Signal;HPM_P1;HPM_P2
2023/06/28 00:02:12;;;;;;;3.88;1.58;;;;;;;;;;5052639;28;44096;-23
2023/06/28 00:04:40;;;;;;;4.82;1.80;;;;;;;;;;5065215;28;40411;-24
2023/06/28 00:07:08;;;;;;;6.07;2.10;;;;;;;;;;5065311;28;43509;-23
2023/06/28 00:09:38;;;;;;;6.07;1.73;;;;;;;;;;5064649;28;34189;-23
2023/06/28 00:12:06;;;;;;;3.88;1.60;;;;;;;;;;5063187;28;42355;-23
2023/06/28 00:14:34;;;;;;;5.75;1.50;;;;;;;;;;5065481;28;43559;-24
2023/06/28 00:17:02;;;;;;;2.35;1.38;;;;;;;;;;5065312;28;41086;-23
2023/06/28 00:19:30;;;;;;;4.50;1.92;;;;;;;;;;5065129;28;42528;-31
2023/06/28 00:21:58;;;;;;;5.45;1.52;;;;;;;;;;5064983;28;44159;-23
2023/06/28 00:24:27;;;;;;;2.33;1.23;;;;;;;;;;5065332;28;41209;-25
2023/06/28 00:26:57;;;;;;;6.65;1.63;;;;;;;;;;5063800;28;41213;-24
2023/06/28 00:29:24;;;;;;;6.30;1.73;;;;;;;;;;5065230;28;42735;-27
2023/06/28 00:31:52;;;;;;;11.55;1.80;;;;;;;;;;5063445;28;41244;-24
2023/06/28 00:34:20;;;;;;;5.72;2.17;;;;;;;;;;5064992;28;43841;-23
2023/06/28 00:36:48;;;;;;;3.00;1.65;;;;;;;;;;5064576;28;39969;-26
2023/06/28 00:39:16;;;;;;;3.97;1.75;;;;;;;;;;5065141;28;43351;-25
2023/06/28 00:41:44;;;;;;;6.38;1.92;;;;;;;;;;5062889;28;42013;-24
2023/06/28 00:44:14;;;;;;;3.35;1.45;;;;;;;;;;5064959;28;41436;-23
2023/06/28 00:46:42;;;;;;;4.75;1.90;;;;;;;;;;5059297;28;43545;-23
2023/06/28 00:49:10;;;;;;;4.80;1.58;;;;;;;;;;5065517;28;43092;-23
2023/06/28 00:51:37;;;;;;;4.35;1.85;;;;;;;;;;5063969;28;40427;-23
2023/06/28 00:54:05;;;;;;;4.13;2.00;;;;;;;;;;5064761;28;45082;-23
2023/06/28 00:56:34;;;;;;;3.53;1.50;;;;;;;;;;5062269;28;40484;-23
2023/06/28 00:59:02;;;;;;;4.35;2.35;;;;;;;;;;5065401;28;42831;-23
2023/06/28 01:01:31;;;;;;;4.10;2.00;;;;;;;;;;5064088;28;44650;-23
2023/06/28 01:04:00;;;;;;;5.43;2.00;;;;;;;;;;5062354;28;41476;-23
2023/06/28 01:06:31;;;;;;;3.97;2.10;;;;;;;;;;5064648;28;43399;-23
2023/06/28 01:09:03;;;;;;;3.05;1.67;;;;;;;;;;5062689;28;44307;-23
2023/06/28 01:11:31;;;;;;;4.68;1.90;;;;;;;;;;5062634;28;39948;-23
2023/06/28 01:13:59;;;;;;;4.13;1.80;;;;;;;;;;5065561;28;42333;-23
2023/06/28 01:16:28;;;;;;;8.13;2.00;;;;;;;;;;5064298;28;40812;-23
2023/06/28 01:18:57;;;;;;;3.63;1.92;;;;;;;;;;5063944;28;42999;-23
2023/06/28 01:21:26;;;;;;;5.18;2.13;;;;;;;;;;5060931;28;44409;-23
2023/06/28 01:23:56;;;;;;;2.95;1.83;;;;;;;;;;5064752;28;41363;-23
2023/06/28 01:26:24;;;;;;;5.13;1.98;;;;;;;;;;5061786;28;42137;-23
2023/06/28 01:28:52;;;;;;;6.43;2.35;;;;;;;;;;5063301;28;42115;-23
2023/06/28 01:31:20;;;;;;;4.28;1.85;;;;;;;;;;5062144;28;39628;-24
2023/06/28 01:33:48;;;;;;;3.33;1.80;;;;;;;;;;5064673;28;44341;-23
2023/06/28 01:36:16;;;;;;;4.97;1.92;;;;;;;;;;5064101;28;43968;-24
2023/06/28 01:38:44;;;;;;;4.93;2.13;;;;;;;;;;5063651;28;41300;-23
2023/06/28 01:41:13;;;;;;;5.03;2.00;;;;;;;;;;5064193;28;43015;-23
2023/06/28 01:43:42;;;;;;;5.63;2.40;;;;;;;;;;5063314;28;41557;-23
2023/06/28 01:46:10;;;;;;;4.07;2.10;;;;;;;;;;5061060;28;43078;-23
2023/06/28 01:48:38;;;;;;;5.72;2.13;;;;;;;;;;5063490;28;44122;-23
2023/06/28 01:51:06;;;;;;;3.80;2.40;;;;;;;;;;5064436;28;41260;-23
2023/06/28 01:53:34;;;;;;;6.25;2.58;;;;;;;;;;5064093;28;42411;-23
2023/06/28 01:56:02;;;;;;;7.43;2.22;;;;;;;;;;5065109;28;41908;-23
2023/06/28 01:58:31;;;;;;;7.57;2.60;;;;;;;;;;5065078;28;39130;-23
2023/06/28 02:00:59;;;;;;;7.65;3.00;;;;;;;;;;5066808;28;43185;-24
2023/06/28 02:03:27;;;;;;;6.45;2.80;;;;;;;;;;5065224;28;39850;-23
2023/06/28 02:05:56;;;;;;;5.32;2.53;;;;;;;;;;5079802;28;42651;-24
2023/06/28 02:08:24;;;;;;;3.75;2.17;;;;;;;;;;5064546;28;42932;-23
2023/06/28 02:10:52;;;;;;;7.22;3.15;;;;;;;;;;5067636;28;41200;-23
2023/06/28 02:13:20;;;;;;;4.30;2.25;;;;;;;;;;5065203;28;42570;-23
2023/06/28 02:15:50;;;;;;;5.95;2.53;;;;;;;;;;5064866;28;42102;-23
2023/06/28 02:18:24;;;;;;;5.05;2.58;;;;;;;;;;5067617;28;41487;-23
2023/06/28 02:20:52;;;;;;;5.82;2.38;;;;;;;;;;5080500;28;42373;-24
2023/06/28 02:23:20;;;;;;;6.70;2.65;;;;;;;;;;5066511;28;39400;-23
2023/06/28 02:25:48;;;;;;;7.78;3.22;;;;;;;;;;5067074;28;42599;-24
2023/06/28 02:28:19;;;;;;;6.18;2.92;;;;;;;;;;5050573;28;42929;-23
2023/06/28 02:30:47;;;;;;;7.32;3.20;;;;;;;;;;5067743;28;41204;-23
2023/06/28 02:33:18;;;;;;;5.82;2.80;;;;;;;;;;5066887;28;42855;-23
2023/06/28 02:35:46;;;;;;;6.35;2.80;;;;;;;;;;5064358;28;43087;-22
2023/06/28 02:38:14;;;;;;;5.18;2.78;;;;;;;;;;5065307;28;40263;-23
2023/06/28 02:40:42;;;;;;;5.07;3.00;;;;;;;;;;5065652;28;42107;-22
2023/06/28 02:43:10;;;;;;;6.60;3.30;;;;;;;;;;5066473;28;40651;-22
2023/06/28 02:45:38;;;;;;;10.98;3.15;;;;;;;;;;5098077;28;44612;-22
2023/06/28 02:48:07;;;;;;;5.93;3.00;;;;;;;;;;5066019;28;20661;-22
2023/06/28 02:50:37;;;;;;;5.30;2.88;;;;;;;;;;5064106;28;38876;-22
2023/06/28 02:53:09;;;;;;;4.38;2.47;;;;;;;;;;5064939;28;43487;-22
2023/06/28 02:55:37;;;;;;;7.75;3.17;;;;;;;;;;5066326;28;43484;-22
2023/06/28 02:58:07;;;;;;;9.50;2.90;;;;;;;;;;5092024;28;40679;-22
2023/06/28 03:00:38;;;;;;;5.38;2.88;;;;;;;;;;5064150;28;41222;-22
2023/06/28 03:03:09;;;;;;;4.90;2.88;;;;;;;;;;5064185;28;43166;-22
2023/06/28 03:05:42;;;;;;;7.43;2.85;;;;;;;;;;5063688;28;42715;-22
2023/06/28 03:08:10;;;;;;;7.03;3.45;;;;;;;;;;5056862;28;42026;-22
2023/06/28 03:10:38;;;;;;;5.18;3.28;;;;;;;;;;5063053;28;41438;-22
2023/06/28 03:13:06;;;;;;;6.43;3.15;;;;;;;;;;5066969;28;42479;-22
2023/06/28 03:15:35;;;;;;;8.82;3.67;;;;;;;;;;5063115;28;41687;-22
2023/06/28 03:18:03;;;;;;;9.55;3.53;;;;;;;;;;5064236;28;40219;-21
2023/06/28 03:20:31;;;;;;;6.13;3.50;;;;;;;;;;5080847;28;42137;-22
2023/06/28 03:23:00;;;;;;;6.35;3.20;;;;;;;;;;5066933;28;44087;-22
2023/06/28 03:25:28;;;;;;;4.82;3.15;;;;;;;;;;5064292;28;39286;-22
2023/06/28 03:27:57;;;;;;;11.57;3.78;;;;;;;;;;5064695;28;43511;-22
2023/06/28 03:30:25;;;;;;;9.20;3.45;;;;;;;;;;5075552;28;38927;-22
2023/06/28 03:32:53;;;;;;;5.60;2.72;;;;;;;;;;5063895;28;42522;-22
2023/06/28 03:35:21;;;;;;;4.88;3.65;;;;;;;;;;5065541;28;43175;-22
2023/06/28 03:37:50;;;;;;;6.97;3.50;;;;;;;;;;5064411;28;40070;-22
2023/06/28 03:40:19;;;;;;;9.23;3.47;;;;;;;;;;5064871;28;43558;-22
2023/06/28 03:42:48;;;;;;;6.35;2.47;;;;;;;;;;5066151;28;43469;-22
2023/06/28 03:45:16;;;;;;;6.57;3.45;;;;;;;;;;5063421;28;39024;-22
2023/06/28 03:47:46;;;;;;;5.30;3.72;;;;;;;;;;5066895;28;41269;-22
2023/06/28 03:50:14;;;;;;;7.10;3.40;;;;;;;;;;5063462;28;39649;-22
2023/06/28 03:52:42;;;;;;;8.27;3.63;;;;;;;;;;5065694;28;42754;-22
2023/06/28 03:55:12;;;;;;;5.95;3.13;;;;;;;;;;5063981;28;42882;-22
2023/06/28 03:57:42;;;;;;;6.25;3.13;;;;;;;;;;5065800;28;39978;-22
2023/06/28 04:00:11;;;;;;;7.07;3.22;;;;;;;;;;5065028;28;43425;-21
2023/06/28 04:02:44;;;;;;;6.05;3.08;;;;;;;;;;5065405;28;43735;-22
2023/06/28 04:05:13;;;;;;;6.03;3.88;;;;;;;;;;5065811;28;40212;-22
2023/06/28 04:07:41;;;;;;;10.10;3.65;;;;;;;;;;5065278;28;44060;-23
2023/06/28 04:10:09;;;;;;;5.60;3.30;;;;;;;;;;5065914;28;44500;-22
2023/06/28 04:12:37;;;;;;;6.38;3.50;;;;;;;;;;5062289;28;43941;-22
2023/06/28 04:15:09;;;;;;;6.13;3.33;;;;;;;;;;5055293;28;43389;-22
2023/06/28 04:17:37;;;;;;;8.20;3.17;;;;;;;;;;5061933;28;42780;-21
2023/06/28 04:20:07;;;;;;;10.07;3.50;;;;;;;;;;5065848;28;42716;-22
2023/06/28 04:22:35;;;;;;;6.43;2.75;;;;;;;;;;5064676;28;43558;-21
2023/06/28 04:25:03;;;;;;;4.72;2.38;;;;;;;;;;5065461;28;40915;-22
2023/06/28 04:27:31;;;;;;;5.30;2.67;;;;;;;;;;5065080;28;42965;-22
2023/06/28 04:29:59;;;;;;;6.78;3.40;;;;;;;;;;5065290;28;43435;-22
2023/06/28 04:32:29;;;;;;;4.47;2.33;;;;;;;;;;5065021;28;42849;-22
2023/06/28 04:34:59;;;;;;;5.30;3.20;;;;;;;;;;5065067;28;43500;-22
2023/06/28 04:37:27;;;;;;;8.68;2.95;;;;;;;;;;5065080;28;41306;-22
2023/06/28 04:39:55;;;;;;;5.95;2.85;;;;;;;;;;5065048;28;43118;-22
2023/06/28 04:42:23;;;;;;;8.05;3.15;;;;;;;;;;5064230;28;43065;-22
2023/06/28 04:44:51;;;;;;;8.82;3.17;;;;;;;;;;5064728;28;39835;-22
2023/06/28 04:47:19;;;;;;;6.63;3.28;;;;;;;;;;5065157;28;42245;-22
2023/06/28 04:49:49;;;;;;;5.78;3.30;;;;;;;;;;5064854;28;42887;-22
2023/06/28 04:52:18;;;;;;;6.65;2.95;;;;;;;;;;5065435;28;41168;-22
2023/06/28 04:54:47;;;;;;;6.22;3.00;;;;;;;;;;5065014;28;43550;-22
2023/06/28 04:57:15;;;;;;;6.10;2.78;;;;;;;;;;5064838;28;41686;-22
2023/06/28 04:59:43;;;;;;;5.53;3.05;;;;;;;;;;5064634;28;42769;-22
2023/06/28 05:02:11;;;;;;;5.30;3.25;;;;;;;;;;5064699;28;44068;-21
2023/06/28 05:04:39;;;;;;;5.80;3.10;;;;;;;;;;5064220;28;40548;-22
2023/06/28 05:07:09;;;;;;;6.68;2.97;;;;;;;;;;5065340;28;42584;-22
2023/06/28 05:09:37;;;;;;;5.88;2.80;;;;;;;;;;5062483;28;41818;-22
2023/06/28 05:12:06;;;;;;;5.45;2.70;;;;;;;;;;5064357;28;40414;-22
2023/06/28 05:14:34;;;;;;;4.07;2.10;;;;;;;;;;5064925;28;42997;-22
2023/06/28 05:17:02;;;;;;;5.70;2.72;;;;;;;;;;5065241;28;41186;-22
2023/06/28 05:19:30;;;;;;;4.07;2.25;;;;;;;;;;5063741;28;42467;-22
2023/06/28 05:21:58;;;;;;;4.78;3.00;;;;;;;;;;5064927;28;43758;-22
2023/06/28 05:24:27;;;;;;;8.35;3.00;;;;;;;;;;5063908;28;40672;-22
2023/06/28 05:26:55;;;;;;;6.68;3.28;;;;;;;;;;5053541;28;42944;-22
2023/06/28 05:29:23;;;;;;;3.65;2.13;;;;;;;;;;5055434;28;43411;-21
2023/06/28 05:31:51;;;;;;;8.27;3.10;;;;;;;;;;5060142;28;40299;-22
2023/06/28 05:34:19;;;;;;;4.43;2.38;;;;;;;;;;5057248;28;43705;-22
2023/06/28 05:36:47;;;;;;;4.80;2.20;;;;;;;;;;5060244;28;43871;-22
2023/06/28 05:39:15;;;;;;;3.85;2.45;;;;;;;;;;5068462;28;42222;-22
2023/06/28 05:41:45;;;;;;;4.70;2.13;;;;;;;;;;5067871;28;43810;-22
2023/06/28 05:44:15;;;;;;;5.72;2.45;;;;;;;;;;5067449;28;41322;-22
2023/06/28 05:46:43;;;;;;;5.82;2.35;;;;;;;;;;5067443;28;43426;-23
2023/06/28 05:49:11;;;;;;;6.43;2.72;;;;;;;;;;5068181;28;43630;-22
2023/06/28 05:51:39;;;;;;;5.80;3.00;;;;;;;;;;5067565;28;41257;-22
2023/06/28 05:54:08;;;;;;;8.90;3.33;;;;;;;;;;5068405;28;43541;-22
2023/06/28 05:56:35;;;;;;;5.53;3.20;;;;;;;;;;5066835;28;44047;-23
2023/06/28 05:59:05;;;;;;;6.57;3.40;;;;;;;;;;5068018;28;39906;-22
2023/06/28 06:01:33;;;;;;;7.35;3.33;;;;;;;;;;5066032;28;43932;-22
2023/06/28 06:04:01;;;;;;;3.97;2.58;;;;;;;;;;5057936;28;41429;-22
2023/06/28 06:06:29;;;;;;;4.47;2.42;;;;;;;;;;5066981;28;42491;-22
2023/06/28 06:08:57;;;;;;;4.65;1.90;;;;;;;;;;5065149;28;43470;-22
2023/06/28 06:11:28;;;;;;;4.30;2.30;;;;;;;;;;5061436;28;43510;-22
2023/06/28 06:13:56;;;;;;;6.82;2.88;;;;;;;;;;5066939;28;44129;-22
2023/06/28 06:16:25;;;;;;;6.50;3.25;;;;;;;;;;5053216;28;44141;-22
2023/06/28 06:18:53;;;;;;;8.25;3.00;;;;;;;;;;5067862;28;41089;-22
2023/06/28 06:21:21;;;;;;;7.63;3.13;;;;;;;;;;5067168;28;42458;-23
2023/06/28 06:23:49;;;;;;;6.55;2.20;;;;;;;;;;5067724;28;41671;-23
2023/06/28 06:26:17;;;;;;;5.95;2.70;;;;;;;;;;5067098;28;43640;-22
2023/06/28 06:28:45;;;;;;;5.93;2.72;;;;;;;;;;5067293;28;44841;-22
2023/06/28 06:31:15;;;;;;;8.27;2.80;;;;;;;;;;5067047;28;40682;-23
2023/06/28 06:33:44;;;;;;;4.70;2.58;;;;;;;;;;5067068;28;42914;-23
2023/06/28 06:36:12;;;;;;;4.18;2.10;;;;;;;;;;5062717;28;44300;-22
2023/06/28 06:38:41;;;;;;;3.92;1.90;;;;;;;;;;5062214;28;39156;-22
2023/06/28 06:41:09;;;;;;;7.07;2.92;;;;;;;;;;5055767;28;42733;-22
2023/06/28 06:43:37;;;;;;;5.15;2.00;;;;;;;;;;5051041;28;40941;-22
2023/06/28 06:46:04;;;;;;;5.93;2.65;;;;;;;;;;5037825;28;41835;-22
2023/06/28 06:48:32;;;;;;;4.57;2.03;;;;;;;;;;5025278;28;43579;-22
2023/06/28 06:51:04;;;;;;;5.97;2.35;;;;;;;;;;5026064;28;40914;-22
2023/06/28 06:53:32;;;;;;;4.28;2.40;;;;;;;;;;5026042;28;42975;-22
2023/06/28 06:56:00;;;;;;;6.78;2.35;;;;;;;;;;5023694;28;43097;-22
2023/06/28 06:58:28;;;;;;;4.10;2.25;;;;;;;;;;5023693;28;40930;-22
2023/06/28 07:00:56;;;;;;;4.63;2.15;;;;;;;;;;5021099;28;42652;-25
2023/06/28 07:03:24;;;;;;;4.30;2.17;;;;;;;;;;5026070;28;43394;-27
2023/06/28 07:05:52;;;;;;;5.38;2.10;;;;;;;;;;5026818;28;42838;-25
2023/06/28 07:08:22;;;;;;;6.43;2.28;;;;;;;;;;5025760;28;43952;-24
2023/06/28 07:10:49;;;;;;;5.30;2.20;;;;;;;;;;5026511;28;39836;-25
2023/06/28 07:13:17;;;;;;;6.53;3.00;;;;;;;;;;5024682;28;43265;-24
2023/06/28 07:15:45;;;;;;;7.13;2.72;;;;;;;;;;5025299;28;43624;-26
2023/06/28 07:18:13;;;;;;;7.43;2.22;;;;;;;;;;5026016;28;40330;-26
2023/06/28 07:20:41;;;;;;;5.82;2.40;;;;;;;;;;5026181;28;42752;-27
2023/06/28 07:23:09;;;;;;;5.35;2.50;;;;;;;;;;5025504;28;44026;-24
2023/06/28 07:25:39;;;;;;;3.15;1.90;;;;;;;;;;5026169;28;41917;-24
2023/06/28 07:28:08;;;;;;;5.22;2.40;;;;;;;;;;5026002;28;43694;-26
2023/06/28 07:30:51;;;;;;;6.20;2.45;;;;;;;;;;5026339;28;40418;-25
2023/06/28 07:33:19;;;;;;;5.70;2.70;;;;;;;;;;5026341;28;43733;-27
2023/06/28 07:35:47;;;;;;;4.60;2.10;;;;;;;;;;5026624;28;43743;-24
2023/06/28 07:38:15;;;;;;;7.55;2.53;;;;;;;;;;5025442;28;42353;-24
2023/06/28 07:40:45;;;;;;;6.97;2.78;;;;;;;;;;5024573;28;42676;-24
2023/06/28 07:43:13;;;;;;;4.55;2.20;;;;;;;;;;5025947;28;43394;-24
2023/06/28 07:45:41;;;;;;;5.72;2.75;;;;;;;;;;5059754;28;41002;-24
2023/06/28 07:48:10;;;;;;;6.40;3.00;;;;;;;;;;5065180;28;42742;-24
2023/06/28 07:50:38;;;;;;;5.43;2.50;;;;;;;;;;5065300;28;41504;-24
2023/06/28 07:53:06;;;;;;;4.57;2.85;;;;;;;;;;5064600;28;43009;-24
2023/06/28 07:55:34;;;;;;;6.13;2.67;;;;;;;;;;5064221;28;43638;-25
2023/06/28 07:58:03;;;;;;;9.90;2.97;;;;;;;;;;5061833;28;40341;-24
2023/06/28 08:00:31;;;;;;;7.72;2.28;;;;;;;;;;5063951;28;43696;-24
2023/06/28 08:03:01;;;;;;;7.40;2.45;;;;;;;;;;5065673;28;44843;-25
2023/06/28 08:05:30;;;;;;;10.45;3.47;;;;;;;;;;5064978;28;40509;-25
2023/06/28 08:07:58;;;;;;;4.82;2.78;;;;;;;;;;5065146;28;42917;-25
2023/06/28 08:10:26;;;;;;;7.05;2.70;;;;;;;;;;5062622;28;42497;-25
2023/06/28 08:12:55;;;;;;;5.93;2.58;;;;;;;;;;5065086;28;43240;-26
2023/06/28 08:15:25;;;;;;;5.53;3.38;;;;;;;;;;5064582;28;42994;-25
2023/06/28 08:17:53;;;;;;;8.15;3.00;;;;;;;;;;5065698;28;41265;-30
2023/06/28 08:20:21;;;;;;;7.35;2.90;;;;;;;;;;5064589;28;42763;-26
2023/06/28 08:22:49;;;;;;;6.75;2.63;;;;;;;;;;5064755;28;43344;-25
2023/06/28 08:25:17;;;;;;;7.20;3.35;;;;;;;;;;5063749;28;40826;-25
2023/06/28 08:27:45;;;;;;;6.57;3.00;;;;;;;;;;5064584;28;42331;-24
2023/06/28 08:30:13;;;;;;;6.00;3.80;;;;;;;;;;5065348;28;43098;-25
2023/06/28 08:32:42;;;;;;;7.30;2.85;;;;;;;;;;5065943;28;40072;-24
2023/06/28 08:35:10;;;;;;;7.90;3.67;;;;;;;;;;5065623;28;44091;-25
2023/06/28 08:37:38;;;;;;;7.00;2.92;;;;;;;;;;5063991;28;40349;-25
2023/06/28 08:40:07;;;;;;;4.65;2.20;;;;;;;;;;5065400;28;42737;-25
2023/06/28 08:42:35;;;;;;;7.43;2.90;;;;;;;;;;5064004;28;43924;-26
2023/06/28 08:45:04;;;;;;;6.75;2.67;;;;;;;;;;5064028;28;40235;-25
2023/06/28 08:47:32;;;;;;;7.65;2.60;;;;;;;;;;5065226;28;43386;-25
2023/06/28 08:50:01;;;;;;;3.72;2.50;;;;;;;;;;5064956;28;43279;-26
2023/06/28 08:52:30;;;;;;;9.65;2.85;;;;;;;;;;5065039;28;40692;-25
2023/06/28 08:54:57;;;;;;;6.55;2.65;;;;;;;;;;5065062;28;44414;-25
2023/06/28 08:57:25;;;;;;;7.93;2.95;;;;;;;;;;5064935;28;40368;-24
2023/06/28 08:59:53;;;;;;;6.70;2.83;;;;;;;;;;5065294;28;42584;-28
2023/06/28 09:02:21;;;;;;;7.55;2.70;;;;;;;;;;5064053;28;43806;-27
2023/06/28 09:04:49;;;;;;;5.82;3.10;;;;;;;;;;5067807;28;42405;-26
2023/06/28 09:07:19;;;;;;;10.30;3.90;;;;;;;;;;5067519;28;43404;-26
2023/06/28 09:09:47;;;;;;;9.68;3.63;;;;;;;;;;5068273;28;44824;-25
2023/06/28 09:12:15;;;;;;;7.15;3.45;;;;;;;;;;5066590;28;40127;-24
2023/06/28 09:14:43;;;;;;;6.82;3.85;;;;;;;;;;5063232;28;43685;-25
2023/06/28 09:17:11;;;;;;;6.05;3.20;;;;;;;;;;5067488;28;39821;-24
2023/06/28 09:19:39;;;;;;;7.82;3.63;;;;;;;;;;5068071;28;42605;-24
2023/06/28 09:22:08;;;;;;;10.68;4.82;;;;;;;;;;5067505;28;44106;-24
2023/06/28 09:24:39;;;;;;;7.47;4.20;;;;;;;;;;5063692;28;40414;-25
2023/06/28 09:27:07;;;;;;;14.38;4.97;;;;;;;;;;5038821;28;43443;-28
2023/06/28 09:29:35;;;;;;;9.50;4.78;;;;;;;;;;5065153;28;45312;-27
2023/06/28 09:32:05;;;;;;;7.72;4.55;;;;;;;;;;5063840;28;39803;-28
2023/06/28 09:34:33;;;;;;;9.63;4.22;;;;;;;;;;5063961;28;43628;-27
2023/06/28 09:37:01;;;;;;;8.52;4.32;;;;;;;;;;5066633;28;45050;-28
2023/06/28 09:39:30;;;;;;;8.30;4.65;;;;;;;;;;5064280;28;42726;-34
2023/06/28 09:41:59;;;;;;;8.60;4.40;;;;;;;;;;5066818;28;43166;-29
2023/06/28 09:44:28;;;;;;;8.10;3.13;;;;;;;;;;5067306;28;40294;-26
2023/06/28 09:47:00;;;;;;;6.18;3.83;;;;;;;;;;5064951;28;43521;-26
2023/06/28 09:49:27;;;;;;;8.45;3.97;;;;;;;;;;5061794;28;43211;-27
2023/06/28 09:51:57;;;;;;;9.70;4.38;;;;;;;;;;5065660;28;40371;-28
2023/06/28 09:54:29;;;;;;;10.25;4.60;;;;;;;;;;5064098;28;43268;-30
2023/06/28 09:56:58;;;;;;;7.15;3.92;;;;;;;;;;5065008;28;43780;-28
2023/06/28 09:59:27;;;;;;;9.13;4.05;;;;;;;;;;5063715;28;40305;-29
2023/06/28 10:02:04;;;;;;;11.48;4.75;;;;;;;;;;5061742;28;43249;-27
2023/06/28 10:04:33;;;;;;;10.10;4.03;;;;;;;;;;5065252;28;40871;-27
2023/06/28 10:07:02;;;;;;;6.32;4.00;;;;;;;;;;5065617;28;42621;-31
2023/06/28 10:09:30;;;;;;;7.35;3.80;;;;;;;;;;5064795;28;43482;-29
2023/06/28 10:11:59;;;;;;;8.38;4.72;;;;;;;;;;5065412;28;40649;-28
2023/06/28 10:14:28;;;;;;;7.35;3.83;;;;;;;;;;5062020;28;42667;-25
2023/06/28 10:16:56;;;;;;;10.95;5.03;;;;;;;;;;5061989;28;44486;-25
2023/06/28 10:19:24;;;;;;;8.85;4.10;;;;;;;;;;5066989;28;42390;-29
2023/06/28 10:21:52;;;;;;;7.70;4.65;;;;;;;;;;5067241;28;42844;-28
2023/06/28 10:24:20;;;;;;;7.55;4.55;;;;;;;;;;5067040;28;40524;-26
2023/06/28 10:26:48;;;;;;;11.25;4.68;;;;;;;;;;5066409;28;42567;-27
2023/06/28 10:29:18;;;;;;;9.18;4.20;;;;;;;;;;5066931;28;44159;-25
2023/06/28 10:31:46;;;;;;;6.50;3.67;;;;;;;;;;5066594;28;41476;-26
2023/06/28 10:34:17;;;;;;;8.05;4.72;;;;;;;;;;5051906;28;42159;-25
2023/06/28 10:36:45;;;;;;;8.50;4.47;;;;;;;;;;5065301;28;44158;-26
2023/06/28 10:39:13;;;;;;;13.60;5.50;;;;;;;;;;5066093;28;40260;-25
2023/06/28 10:41:41;;;;;;;10.43;4.28;;;;;;;;;;5065674;28;44218;-24
2023/06/28 10:44:09;;;;;;;9.52;3.80;;;;;;;;;;5061778;28;32718;-24
2023/06/28 10:46:38;;;;;;;9.57;4.65;;;;;;;;;;5059533;28;42755;-24
2023/06/28 10:49:06;;;;;;;10.75;5.07;;;;;;;;;;5065329;28;43688;-24
2023/06/28 10:51:35;;;;;;;6.30;4.15;;;;;;;;;;5064909;28;41511;-24
2023/06/28 10:54:06;;;;;;;7.88;4.40;;;;;;;;;;5066357;28;43265;-24
2023/06/28 10:56:38;;;;;;;9.52;4.13;;;;;;;;;;5064539;28;44438;-24
2023/06/28 10:59:06;;;;;;;6.45;3.97;;;;;;;;;;5063715;28;41298;-24
2023/06/28 11:01:38;;;;;;;7.90;4.28;;;;;;;;;;5065740;28;42705;-23
2023/06/28 11:04:13;;;;;;;11.88;4.80;;;;;;;;;;5066161;28;44656;-24
2023/06/28 11:06:41;;;;;;;8.65;4.28;;;;;;;;;;5065382;28;43005;-24
2023/06/28 11:09:13;;;;;;;8.35;4.25;;;;;;;;;;5063693;28;43453;-24
2023/06/28 11:11:42;;;;;;;9.73;4.13;;;;;;;;;;5063501;28;40523;-23
2023/06/28 11:14:16;;;;;;;8.80;3.78;;;;;;;;;;5064080;28;43217;-24
2023/06/28 11:16:47;;;;;;;11.02;4.50;;;;;;;;;;5060954;28;43468;-24
2023/06/28 11:19:15;;;;;;;7.80;3.90;;;;;;;;;;5058708;28;41931;-24
2023/06/28 11:21:43;;;;;;;7.60;3.47;;;;;;;;;;5063760;28;42704;-24
2023/06/28 11:24:11;;;;;;;6.75;3.22;;;;;;;;;;5062321;28;43522;-24
2023/06/28 11:26:40;;;;;;;9.63;3.90;;;;;;;;;;5055634;28;40313;-24
2023/06/28 11:29:17;;;;;;;8.10;4.22;;;;;;;;;;5058615;28;43761;-24
2023/06/28 11:31:48;;;;;;;11.73;4.20;;;;;;;;;;5076666;28;40109;-24
2023/06/28 11:34:16;;;;;;;8.38;4.22;;;;;;;;;;5059388;28;42664;-24
2023/06/28 11:36:44;;;;;;;8.98;3.90;;;;;;;;;;5059027;28;43859;-24
2023/06/28 11:39:14;;;;;;;7.90;3.88;;;;;;;;;;5053731;28;40691;-24
2023/06/28 11:41:42;;;;;;;7.38;3.60;;;;;;;;;;5065618;28;42742;-25
2023/06/28 11:44:11;;;;;;;12.05;4.30;;;;;;;;;;5065791;28;44043;-25
2023/06/28 11:46:39;;;;;;;8.07;4.20;;;;;;;;;;5065304;28;40885;-24
2023/06/28 11:49:08;;;;;;;6.90;4.30;;;;;;;;;;5066676;28;42704;-24
2023/06/28 11:51:36;;;;;;;8.65;4.15;;;;;;;;;;5064561;28;40241;-23
2023/06/28 11:54:05;;;;;;;9.98;4.78;;;;;;;;;;5059166;28;42694;-23
2023/06/28 11:56:34;;;;;;;10.57;4.35;;;;;;;;;;5061568;28;44345;-23
2023/06/28 11:59:14;;;;;;;9.32;4.32;;;;;;;;;;5059017;28;42625;-23
2023/06/28 12:01:42;;;;;;;9.60;5.03;;;;;;;;;;5065356;28;42430;-23
2023/06/28 12:04:18;;;;;;;7.47;4.35;;;;;;;;;;5064709;28;43308;-23
2023/06/28 12:06:50;;;;;;;7.97;3.85;;;;;;;;;;5055302;28;38979;-22
2023/06/28 12:09:19;;;;;;;10.32;4.65;;;;;;;;;;5055108;28;42829;-23
2023/06/28 12:11:52;;;;;;;9.40;4.50;;;;;;;;;;5058605;28;44138;-25
2023/06/28 12:14:20;;;;;;;10.50;4.57;;;;;;;;;;5055547;28;43629;-23
2023/06/28 12:16:48;;;;;;;8.98;4.57;;;;;;;;;;5056313;28;44451;-23
2023/06/28 12:19:17;;;;;;;8.57;4.68;;;;;;;;;;5056412;28;40952;-23
2023/06/28 12:21:46;;;;;;;9.77;4.85;;;;;;;;;;5057370;28;42905;-22
2023/06/28 12:24:16;;;;;;;11.98;5.30;;;;;;;;;;5058686;28;43153;-22
2023/06/28 12:26:44;;;;;;;10.88;5.22;;;;;;;;;;5057981;28;40678;-22
2023/06/28 12:29:12;;;;;;;9.88;5.00;;;;;;;;;;5057954;28;42708;-23
2023/06/28 12:31:41;;;;;;;12.85;5.60;;;;;;;;;;5056622;28;43031;-22
2023/06/28 12:34:10;;;;;;;10.02;5.55;;;;;;;;;;5057670;28;40507;-22
2023/06/28 12:36:38;;;;;;;9.52;5.25;;;;;;;;;;5057919;28;43263;-22
2023/06/28 12:39:08;;;;;;;13.07;5.45;;;;;;;;;;5058601;28;40309;-22
2023/06/28 12:41:36;;;;;;;9.25;5.50;;;;;;;;;;5055568;28;43716;-22
2023/06/28 12:44:04;;;;;;;10.02;5.15;;;;;;;;;;5059385;28;44430;-23
2023/06/28 12:46:32;;;;;;;10.93;4.47;;;;;;;;;;5053331;28;40301;-23
2023/06/28 12:49:03;;;;;;;9.50;4.82;;;;;;;;;;5058620;28;42747;-22
2023/06/28 12:51:31;;;;;;;10.32;4.78;;;;;;;;;;5051569;28;44579;-22
2023/06/28 12:53:59;;;;;;;11.77;5.55;;;;;;;;;;5058628;28;39868;-22
2023/06/28 12:56:28;;;;;;;9.20;5.57;;;;;;;;;;5056932;28;44542;-22
2023/06/28 12:58:56;;;;;;;13.20;6.22;;;;;;;;;;5057437;28;41218;-22
2023/06/28 13:01:25;;;;;;;13.13;6.65;;;;;;;;;;5056625;28;42583;-24
2023/06/28 13:03:54;;;;;;;9.18;6.43;;;;;;;;;;5057125;28;43506;-27
2023/06/28 13:06:23;;;;;;;14.45;6.35;;;;;;;;;;5056356;28;41313;-23
2023/06/28 13:08:52;;;;;;;17.63;6.93;;;;;;;;;;5057528;28;42709;-25
2023/06/28 13:11:20;;;;;;;9.60;6.15;;;;;;;;;;5054758;28;43703;-34
2023/06/28 13:13:50;;;;;;;10.07;5.78;;;;;;;;;;5057101;28;40884;-26
2023/06/28 13:16:20;;;;;;;11.30;5.60;;;;;;;;;;5055052;28;41651;-25
2023/06/28 13:18:48;;;;;;;10.80;6.60;;;;;;;;;;5057070;28;41720;-25
2023/06/28 13:21:16;;;;;;;10.95;5.63;;;;;;;;;;5058241;28;42679;-24
2023/06/28 13:23:45;;;;;;;11.75;4.70;;;;;;;;;;5056013;28;44241;-25
2023/06/28 13:26:13;;;;;;;10.82;5.13;;;;;;;;;;5058530;28;40494;-25
2023/06/28 13:28:42;;;;;;;8.25;5.00;;;;;;;;;;5055325;28;43729;-25
2023/06/28 13:31:11;;;;;;;11.40;5.25;;;;;;;;;;5055315;28;43418;-24
2023/06/28 13:33:39;;;;;;;7.85;5.53;;;;;;;;;;5054558;28;40866;-24
2023/06/28 13:36:07;;;;;;;11.30;6.28;;;;;;;;;;5058154;28;43001;-27
2023/06/28 13:38:38;;;;;;;8.98;6.00;;;;;;;;;;5056948;28;42964;-24
2023/06/28 13:41:06;;;;;;;13.88;6.45;;;;;;;;;;5057932;28;42955;-24
2023/06/28 13:43:34;;;;;;;12.75;7.00;;;;;;;;;;5055157;28;44394;-24
2023/06/28 13:46:02;;;;;;;14.05;7.00;;;;;;;;;;5056257;28;39984;-26
2023/06/28 13:48:32;;;;;;;10.48;5.60;;;;;;;;;;5057050;28;42712;-23
2023/06/28 13:51:00;;;;;;;11.35;5.57;;;;;;;;;;5059239;28;44018;-31
2023/06/28 13:53:28;;;;;;;9.23;6.28;;;;;;;;;;5062367;28;40038;-28
2023/06/28 13:55:58;;;;;;;11.23;5.80;;;;;;;;;;5063760;28;43649;-25
2023/06/28 13:58:27;;;;;;;12.98;6.32;;;;;;;;;;5058291;28;43348;-25
2023/06/28 14:00:56;;;;;;;10.00;6.43;;;;;;;;;;5062229;28;40320;-25
2023/06/28 14:03:24;;;;;;;11.23;6.32;;;;;;;;;;5060358;28;44052;-25
2023/06/28 14:05:54;;;;;;;11.07;6.07;;;;;;;;;;5057826;28;41306;-27
2023/06/28 14:08:22;;;;;;;12.18;7.00;;;;;;;;;;5060869;28;43920;-27
2023/06/28 14:10:50;;;;;;;14.45;6.70;;;;;;;;;;5060576;28;43593;-25
2023/06/28 14:13:18;;;;;;;12.05;6.50;;;;;;;;;;5058779;28;40759;-25
2023/06/28 14:15:46;;;;;;;11.68;6.03;;;;;;;;;;5064518;28;42624;-25
2023/06/28 14:18:14;;;;;;;11.80;6.22;;;;;;;;;;5068005;28;44520;-25
2023/06/28 14:20:42;;;;;;;9.60;6.07;;;;;;;;;;5065205;28;40919;-26
2023/06/28 14:23:11;;;;;;;11.32;6.70;;;;;;;;;;5062508;28;43660;-26
2023/06/28 14:25:39;;;;;;;15.95;5.63;;;;;;;;;;5065655;28;40389;-26
2023/06/28 14:28:08;;;;;;;10.88;6.60;;;;;;;;;;5066500;28;43524;-25
2023/06/28 14:30:36;;;;;;;10.75;6.88;;;;;;;;;;5057245;28;43053;-29
2023/06/28 14:33:04;;;;;;;14.75;8.13;;;;;;;;;;5066198;28;40910;-26
2023/06/28 14:35:32;;;;;;;13.25;7.90;;;;;;;;;;5066343;28;42414;-25
2023/06/28 14:38:02;;;;;;;14.95;7.25;;;;;;;;;;5067302;28;42602;-27
2023/06/28 14:40:32;;;;;;;10.60;7.03;;;;;;;;;;5065270;28;39730;-28
2023/06/28 14:43:00;;;;;;;16.65;8.18;;;;;;;;;;5065920;28;43744;-28
2023/06/28 14:45:28;;;;;;;11.55;7.63;;;;;;;;;;5068153;28;43089;-25
2023/06/28 14:47:56;;;;;;;9.18;6.43;;;;;;;;;;5064991;28;43980;-27
2023/06/28 14:50:25;;;;;;;11.23;6.25;;;;;;;;;;5064451;28;43399;-25